createdAt,value
2022-11-03T00:01:51.215Z,52.85
2022-11-03T00:04:22.855Z,52.85
2022-11-03T00:06:53.755Z,52.85
2022-11-03T00:09:24.298Z,52.66
2022-11-03T00:11:53.230Z,52.69
2022-11-03T00:14:21.531Z,52.68
2022-11-03T00:16:50.325Z,52.58
2022-11-03T00:19:19.933Z,52.78
2022-11-03T00:21:48.301Z,52.76
2022-11-03T00:24:16.541Z,52.75
2022-11-03T00:26:44.824Z,52.77
2022-11-03T00:29:15.257Z,53.05
2022-11-03T00:31:45.697Z,52.83
2022-11-03T00:34:14.138Z,52.74
2022-11-03T00:36:46.098Z,52.94
2022-11-03T00:39:14.574Z,52.91
2022-11-03T00:41:42.910Z,53.14
2022-11-03T00:44:13.292Z,53.14
2022-11-03T00:46:41.527Z,53.51
2022-11-03T00:49:09.863Z,53.60
2022-11-03T00:51:38.125Z,53.66
2022-11-03T00:54:08.377Z,53.85
2022-11-03T00:56:38.802Z,53.90
2022-11-03T00:59:09.094Z,53.96
2022-11-03T01:01:46.017Z,53.91
2022-11-03T01:04:35.009Z,53.97
2022-11-03T01:07:05.773Z,54.07
2022-11-03T01:09:39.588Z,54.21
2022-11-03T01:12:11.403Z,54.33
2022-11-03T01:14:42.907Z,54.45
2022-11-03T01:17:16.429Z,54.39
2022-11-03T01:19:45.292Z,54.38
2022-11-03T01:22:14.613Z,54.38
2022-11-03T01:24:44.871Z,54.56
2022-11-03T01:27:17.003Z,54.55
2022-11-03T01:29:45.466Z,54.53
2022-11-03T01:32:14.003Z,54.55
2022-11-03T01:34:42.296Z,54.63
2022-11-03T01:37:10.756Z,54.69
2022-11-03T01:39:39.016Z,54.62
2022-11-03T01:42:08.644Z,54.68
2022-11-03T01:44:47.025Z,54.64
2022-11-03T01:47:22.836Z,54.79
2022-11-03T01:49:57.311Z,54.83
2022-11-03T01:52:29.642Z,54.75
2022-11-03T01:55:03.703Z,54.83
2022-11-03T01:57:39.972Z,54.83
2022-11-03T02:00:10.126Z,54.93
2022-11-03T02:02:38.563Z,55.03
2022-11-03T02:05:08.803Z,55.11
2022-11-03T02:07:41.692Z,55.14
2022-11-03T02:10:11.025Z,55.12
2022-11-03T02:12:41.336Z,55.13
2022-11-03T02:15:12.429Z,55.16
2022-11-03T02:17:43.137Z,55.09
2022-11-03T02:20:16.143Z,55.23
2022-11-03T02:23:12.806Z,55.07
2022-11-03T02:25:48.800Z,55.21
2022-11-03T02:28:20.836Z,55.30
2022-11-03T02:30:59.103Z,55.37
2022-11-03T02:33:49.896Z,55.21
2022-11-03T02:36:24.192Z,55.24
2022-11-03T02:38:59.354Z,55.19
2022-11-03T02:41:30.953Z,55.06
2022-11-03T02:43:59.834Z,55.10
2022-11-03T02:46:29.277Z,55.26
2022-11-03T02:48:57.790Z,55.16
2022-11-03T02:51:26.309Z,54.87
2022-11-03T02:54:05.385Z,54.94
2022-11-03T02:56:41.505Z,54.99
2022-11-03T02:59:13.719Z,54.94
2022-11-03T03:01:52.592Z,54.85
2022-11-03T03:04:30.037Z,55.07
2022-11-03T03:07:03.055Z,54.91
2022-11-03T03:09:38.738Z,54.97
2022-11-03T03:12:12.049Z,54.91
2022-11-03T03:14:43.799Z,55.14
2022-11-03T03:17:25.740Z,55.09
2022-11-03T03:20:02.338Z,55.08
2022-11-03T03:22:36.491Z,55.12
2022-11-03T03:25:14.468Z,55.16
2022-11-03T03:27:49.155Z,55.21
2022-11-03T03:30:18.847Z,55.49
2022-11-03T03:35:22.343Z,55.41
2022-11-03T03:37:53.443Z,55.45
2022-11-03T03:40:26.954Z,55.44
2022-11-03T03:42:57.280Z,55.49
2022-11-03T03:45:27.292Z,55.64
2022-11-03T03:47:57.757Z,55.57
2022-11-03T03:50:29.780Z,55.58
2022-11-03T03:53:01.819Z,55.56
2022-11-03T03:55:37.348Z,55.52
2022-11-03T03:58:08.545Z,55.58
2022-11-03T04:00:40.103Z,55.55
2022-11-03T04:03:15.461Z,55.61
2022-11-03T04:05:43.775Z,55.47
2022-11-03T04:08:12.520Z,55.42
2022-11-03T04:10:40.910Z,55.41
2022-11-03T04:13:29.040Z,55.43
2022-11-03T04:16:14.431Z,55.38
2022-11-03T04:19:00.024Z,55.57
2022-11-03T04:21:45.409Z,55.65
2022-11-03T04:24:13.637Z,55.52
2022-11-03T04:26:42.365Z,55.71
2022-11-03T04:29:13.224Z,55.89
2022-11-03T04:31:41.517Z,55.74
2022-11-03T04:34:13.608Z,55.94
2022-11-03T04:36:41.828Z,55.72
2022-11-03T04:39:19.752Z,55.88
2022-11-03T04:41:48.438Z,55.92
2022-11-03T04:44:18.459Z,55.77
2022-11-03T04:46:47.773Z,55.89
2022-11-03T04:49:24.028Z,55.91
2022-11-03T04:51:52.500Z,55.87
2022-11-03T04:54:24.367Z,55.84
2022-11-03T04:56:52.754Z,55.94
2022-11-03T04:59:22.456Z,56.00
2022-11-03T05:01:50.867Z,55.99
2022-11-03T05:04:20.138Z,55.76
2022-11-03T05:06:52.527Z,55.58
2022-11-03T05:09:24.775Z,55.61
2022-11-03T05:11:53.153Z,55.38
2022-11-03T05:14:25.610Z,55.54
2022-11-03T05:16:55.448Z,55.54
2022-11-03T05:19:29.506Z,55.43
2022-11-03T05:22:01.359Z,55.22
2022-11-03T05:24:30.910Z,55.36
2022-11-03T05:27:00.935Z,55.27
2022-11-03T05:29:37.607Z,55.21
2022-11-03T05:32:13.186Z,55.16
2022-11-03T05:34:45.382Z,55.07
2022-11-03T05:37:27.275Z,54.89
2022-11-03T05:39:59.784Z,54.80
2022-11-03T05:42:34.276Z,54.83
2022-11-03T05:45:14.115Z,54.82
2022-11-03T05:47:42.935Z,54.77
2022-11-03T05:50:21.245Z,54.76
2022-11-03T05:52:53.345Z,54.71
2022-11-03T05:55:29.493Z,54.64
2022-11-03T05:58:01.322Z,54.49
2022-11-03T06:00:35.695Z,54.42
2022-11-03T06:03:04.376Z,54.59
2022-11-03T06:05:34.383Z,54.71
2022-11-03T06:08:08.650Z,54.75
2022-11-03T06:10:43.869Z,54.75
2022-11-03T06:13:17.208Z,54.67
2022-11-03T06:15:49.448Z,54.74
2022-11-03T06:18:24.350Z,54.83
2022-11-03T06:20:56.758Z,54.78
2022-11-03T06:23:25.414Z,54.70
2022-11-03T06:25:55.568Z,54.85
2022-11-03T06:28:30.189Z,54.95
2022-11-03T06:30:59.942Z,54.75
2022-11-03T06:33:30.996Z,55.20
2022-11-03T06:36:04.562Z,55.05
2022-11-03T06:38:36.105Z,55.15
2022-11-03T06:41:04.375Z,55.38
2022-11-03T06:43:39.232Z,55.32
2022-11-03T06:46:15.600Z,55.44
2022-11-03T06:48:43.880Z,55.69
2022-11-03T06:51:19.824Z,55.71
2022-11-03T06:53:49.129Z,56.20
2022-11-03T06:56:23.003Z,56.48
2022-11-03T06:58:53.958Z,56.67
2022-11-03T07:01:26.977Z,56.83
2022-11-03T07:04:02.049Z,56.94
2022-11-03T07:06:33.460Z,57.13
2022-11-03T07:09:04.998Z,57.12
2022-11-03T07:11:37.340Z,57.39
2022-11-03T07:14:14.852Z,57.54
2022-11-03T07:16:46.976Z,57.24
2022-11-03T07:19:20.479Z,57.00
2022-11-03T07:21:51.806Z,56.98
2022-11-03T07:24:25.920Z,56.90
2022-11-03T07:27:01.059Z,56.71
2022-11-03T07:29:32.151Z,56.62
2022-11-03T07:32:02.024Z,56.21
2022-11-03T07:34:34.044Z,56.33
2022-11-03T07:37:02.563Z,56.19
2022-11-03T07:39:36.838Z,56.22
2022-11-03T07:42:14.357Z,56.12
2022-11-03T07:44:42.720Z,56.00
2022-11-03T07:47:17.831Z,56.04
2022-11-03T07:49:46.550Z,55.97
2022-11-03T07:52:18.002Z,56.10
2022-11-03T07:54:46.412Z,55.87
2022-11-03T07:57:21.266Z,55.93
2022-11-03T07:59:52.225Z,55.90
2022-11-03T08:02:33.035Z,56.04
2022-11-03T08:05:01.969Z,55.89
2022-11-03T08:07:31.503Z,56.03
2022-11-03T08:10:00.073Z,56.41
2022-11-03T08:12:28.418Z,56.57
2022-11-03T08:14:56.728Z,56.70
2022-11-03T08:17:26.461Z,56.78
2022-11-03T08:19:54.853Z,56.73
2022-11-03T08:22:25.901Z,56.82
2022-11-03T08:24:54.594Z,56.90
2022-11-03T08:27:22.926Z,57.18
2022-11-03T08:29:51.199Z,57.27
2022-11-03T08:32:19.423Z,57.55
2022-11-03T08:34:49.173Z,57.81
2022-11-03T08:37:17.441Z,57.92
2022-11-03T08:39:45.694Z,58.16
2022-11-03T08:42:14.016Z,58.21
2022-11-03T08:44:42.291Z,58.23
2022-11-03T08:47:10.566Z,58.50
2022-11-03T08:49:38.844Z,58.36
2022-11-03T08:52:08.532Z,58.16
2022-11-03T08:54:36.765Z,57.78
2022-11-03T08:57:05.104Z,57.63
2022-11-03T08:59:33.371Z,57.48
2022-11-03T09:02:01.808Z,57.36
2022-11-03T09:04:30.120Z,57.14
2022-11-03T09:06:58.401Z,57.03
2022-11-03T09:12:16.242Z,56.80
2022-11-03T09:14:44.996Z,56.59
2022-11-03T09:17:13.368Z,56.33
2022-11-03T09:19:41.638Z,55.91
2022-11-03T09:22:09.901Z,55.69
2022-11-03T09:24:39.595Z,55.30
2022-11-03T09:27:07.830Z,55.12
2022-11-03T09:29:58.386Z,54.58
2022-11-03T09:32:24.709Z,54.21
2022-11-03T09:34:53.133Z,53.81
2022-11-03T09:37:22.888Z,53.32
2022-11-03T09:39:52.788Z,52.75
2022-11-03T09:42:21.532Z,52.49
2022-11-03T09:44:51.665Z,51.88
2022-11-03T09:47:25.212Z,51.84
2022-11-03T09:49:53.828Z,51.42
2022-11-03T09:52:25.859Z,51.18
2022-11-03T09:54:56.591Z,51.21
2022-11-03T09:57:27.873Z,50.32
2022-11-03T09:59:56.832Z,50.16
2022-11-03T10:02:29.369Z,50.40
2022-11-03T10:05:00.202Z,50.09
2022-11-03T10:07:31.456Z,49.99
2022-11-03T10:10:02.091Z,49.70
2022-11-03T10:12:37.884Z,49.03
2022-11-03T10:15:08.193Z,48.96
2022-11-03T10:17:36.484Z,48.74
2022-11-03T10:20:07.831Z,48.61
2022-11-03T10:22:40.845Z,48.46
2022-11-03T10:25:37.804Z,48.04
2022-11-03T10:28:19.452Z,47.87
2022-11-03T10:31:10.577Z,47.21
2022-11-03T10:33:41.872Z,46.65
2022-11-03T10:36:26.328Z,46.87
2022-11-03T10:38:55.559Z,45.95
2022-11-03T10:41:27.014Z,45.48
2022-11-03T10:44:04.548Z,45.32
2022-11-03T10:46:49.677Z,44.08
2022-11-03T10:49:21.091Z,44.54
2022-11-03T10:51:52.571Z,44.39
2022-11-03T10:54:23.877Z,45.19
2022-11-03T10:56:54.310Z,43.67
2022-11-03T10:59:31.558Z,43.64
2022-11-03T11:02:00.658Z,44.05
2022-11-03T11:04:29.407Z,44.42
2022-11-03T11:06:57.727Z,44.04
2022-11-03T11:09:28.185Z,43.85
2022-11-03T11:12:16.795Z,44.32
2022-11-03T11:14:56.601Z,44.00
2022-11-03T11:17:49.660Z,44.12
2022-11-03T11:20:33.305Z,43.96
2022-11-03T11:23:52.463Z,44.22
2022-11-03T11:26:41.792Z,44.08
2022-11-03T11:29:44.941Z,44.28
2022-11-03T11:32:57.723Z,44.68
2022-11-03T11:36:28.893Z,44.45
2022-11-03T11:38:59.623Z,44.56
2022-11-03T11:42:08.738Z,44.64
2022-11-03T11:45:02.013Z,44.28
2022-11-03T11:47:49.732Z,44.47
2022-11-03T11:50:29.649Z,44.07
2022-11-03T11:53:01.580Z,44.04
2022-11-03T11:55:40.059Z,43.82
2022-11-03T11:58:20.672Z,43.48
2022-11-03T12:00:57.416Z,43.82
2022-11-03T12:03:30.818Z,43.67
2022-11-03T12:05:59.161Z,43.86
2022-11-03T12:08:30.891Z,44.12
2022-11-03T12:11:02.172Z,43.91
2022-11-03T12:13:47.505Z,44.20
2022-11-03T12:16:38.111Z,44.51
2022-11-03T12:19:41.886Z,44.62
2022-11-03T12:24:50.124Z,44.54
2022-11-03T12:27:43.877Z,44.48
2022-11-03T12:30:19.101Z,44.69
2022-11-03T12:32:49.358Z,44.12
2022-11-03T12:35:17.961Z,44.35
2022-11-03T12:37:46.845Z,44.15
2022-11-03T12:40:15.395Z,43.89
2022-11-03T12:42:43.783Z,44.29
2022-11-03T12:45:14.370Z,44.32
2022-11-03T12:47:42.642Z,44.32
2022-11-03T12:50:13.140Z,43.98
2022-11-03T12:52:41.425Z,43.62
2022-11-03T12:55:10.546Z,43.75
2022-11-03T12:57:38.821Z,43.74
2022-11-03T13:00:09.168Z,43.61
2022-11-03T13:02:37.605Z,43.50
2022-11-03T13:05:07.784Z,43.48
2022-11-03T13:07:37.456Z,43.65
2022-11-03T13:10:06.578Z,43.35
2022-11-03T13:12:36.700Z,43.24
2022-11-03T13:15:07.665Z,43.33
2022-11-03T13:17:59.310Z,43.17
2022-11-03T13:20:24.565Z,43.22
2022-11-03T13:22:54.263Z,43.37
2022-11-03T13:25:24.394Z,43.30
2022-11-03T13:27:54.435Z,43.17
2022-11-03T13:30:23.181Z,43.37
2022-11-03T13:32:51.658Z,43.67
2022-11-03T13:35:20.341Z,43.48
2022-11-03T13:37:48.997Z,43.53
2022-11-03T13:40:50.298Z,43.92
2022-11-03T13:43:07.543Z,43.74
2022-11-03T13:45:36.047Z,43.93
2022-11-03T13:50:53.685Z,44.07
2022-11-03T13:56:19.292Z,44.26
2022-11-03T14:01:39.223Z,44.39
2022-11-03T14:06:57.502Z,44.78
2022-11-03T14:09:26.664Z,44.81
2022-11-03T14:12:13.962Z,44.82
2022-11-03T14:14:42.504Z,44.81
2022-11-03T14:17:11.327Z,45.02
2022-11-03T14:19:44.805Z,44.82
2022-11-03T14:22:14.490Z,44.98
2022-11-03T14:24:42.771Z,44.74
2022-11-03T14:27:12.884Z,45.03
2022-11-03T14:29:41.173Z,45.12
2022-11-03T14:32:09.441Z,45.26
2022-11-03T14:34:38.433Z,45.11
2022-11-03T14:37:08.914Z,45.48
2022-11-03T14:39:37.644Z,45.56
2022-11-03T14:42:05.391Z,45.79
2022-11-03T14:44:36.737Z,45.53
2022-11-03T14:47:07.604Z,45.59
2022-11-03T14:49:37.025Z,45.70
2022-11-03T14:52:08.095Z,45.87
2022-11-03T14:54:37.329Z,45.94
2022-11-03T14:57:06.265Z,45.85
2022-11-03T14:59:36.030Z,46.08
2022-11-03T15:02:05.831Z,46.22
2022-11-03T15:04:34.589Z,46.16
2022-11-03T15:07:02.908Z,46.45
2022-11-03T15:09:31.253Z,46.41
2022-11-03T15:11:59.513Z,46.66
2022-11-03T15:14:28.131Z,46.72
2022-11-03T15:16:57.809Z,46.54
2022-11-03T15:19:26.089Z,46.76
2022-11-03T15:21:54.366Z,46.65
2022-11-03T15:27:10.864Z,46.87
2022-11-03T15:29:39.135Z,46.74
2022-11-03T15:32:08.960Z,47.06
2022-11-03T15:34:37.243Z,46.86
2022-11-03T15:37:06.618Z,47.07
2022-11-03T15:39:34.984Z,47.02
2022-11-03T15:42:03.308Z,47.11
2022-11-03T15:44:31.716Z,47.43
2022-11-03T15:47:00.127Z,47.18
2022-11-03T15:49:29.802Z,47.36
2022-11-03T15:51:58.086Z,47.34
2022-11-03T15:54:26.405Z,47.40
2022-11-03T15:56:54.685Z,47.27
2022-11-03T15:59:22.961Z,47.28
2022-11-03T16:01:51.534Z,47.44
2022-11-03T16:04:20.001Z,47.42
2022-11-03T16:09:38.012Z,47.49
2022-11-03T16:12:06.837Z,47.76
2022-11-03T16:14:35.177Z,47.79
2022-11-03T16:17:05.177Z,47.75
2022-11-03T16:19:33.721Z,47.68
2022-11-03T16:22:03.540Z,47.89
2022-11-03T16:24:35.226Z,47.82
2022-11-03T16:27:04.356Z,47.98
2022-11-03T16:29:32.728Z,48.05
2022-11-03T16:32:01.122Z,48.30
2022-11-03T16:34:29.398Z,48.64
2022-11-03T16:36:57.911Z,48.69
2022-11-03T16:39:27.659Z,48.70
2022-11-03T16:41:55.981Z,48.72
2022-11-03T16:44:24.426Z,48.76
2022-11-03T16:46:52.806Z,48.94
2022-11-03T16:49:21.158Z,49.01
2022-11-03T16:51:49.522Z,49.05
2022-11-03T16:54:17.933Z,48.97
2022-11-03T16:56:51.964Z,49.09
2022-11-03T16:59:24.393Z,49.31
2022-11-03T17:01:53.143Z,49.44
2022-11-03T17:04:21.658Z,49.43
2022-11-03T17:06:50.002Z,49.44
2022-11-03T17:09:18.388Z,49.57
2022-11-03T17:11:48.196Z,49.82
2022-11-03T17:14:16.569Z,50.02
2022-11-03T17:16:46.723Z,49.97
2022-11-03T17:19:15.622Z,49.97
2022-11-03T17:21:43.990Z,50.00
2022-11-03T17:24:13.300Z,49.96
2022-11-03T17:26:55.673Z,50.06
2022-11-03T17:29:35.543Z,50.11
2022-11-03T17:32:05.987Z,50.12
2022-11-03T17:34:34.504Z,50.22
2022-11-03T17:37:02.955Z,50.33
2022-11-03T17:39:34.545Z,50.36
2022-11-03T17:42:16.185Z,50.34
2022-11-03T17:44:45.208Z,50.42
2022-11-03T17:47:13.547Z,50.51
2022-11-03T17:49:41.881Z,50.58
2022-11-03T17:52:16.420Z,50.47
2022-11-03T17:54:45.243Z,50.50
2022-11-03T17:57:19.141Z,50.59
2022-11-03T17:59:50.910Z,50.62
2022-11-03T18:02:22.451Z,50.69
2022-11-03T18:04:52.364Z,50.73
2022-11-03T18:07:23.817Z,50.86
2022-11-03T18:09:52.281Z,50.91
2022-11-03T18:12:44.690Z,51.18
2022-11-03T18:15:17.056Z,51.17
2022-11-03T18:17:45.502Z,51.17
2022-11-03T18:20:17.413Z,51.21
2022-11-03T18:22:46.573Z,51.18
2022-11-03T18:25:16.169Z,51.18
2022-11-03T18:27:46.025Z,51.42
2022-11-03T18:30:17.327Z,51.17
2022-11-03T18:32:46.893Z,51.25
2022-11-03T18:35:19.833Z,51.19
2022-11-03T18:37:48.267Z,51.37
2022-11-03T18:40:17.689Z,51.27
2022-11-03T18:42:47.704Z,51.42
2022-11-03T18:45:18.931Z,51.52
2022-11-03T18:47:47.333Z,51.38
2022-11-03T18:50:18.332Z,51.46
2022-11-03T18:52:49.292Z,51.65
2022-11-03T18:55:18.478Z,51.69
2022-11-03T18:57:48.588Z,51.76
2022-11-03T19:00:22.737Z,51.63
2022-11-03T19:02:51.533Z,51.76
2022-11-03T19:05:20.671Z,51.50
2022-11-03T19:07:51.093Z,51.65
2022-11-03T19:10:22.407Z,51.61
2022-11-03T19:12:52.319Z,51.59
2022-11-03T19:15:23.639Z,51.44
2022-11-03T19:17:57.290Z,51.68
2022-11-03T19:20:25.995Z,51.48
2022-11-03T19:22:54.332Z,51.64
2022-11-03T19:25:22.720Z,51.62
2022-11-03T19:27:52.427Z,51.77
2022-11-03T19:30:21.521Z,51.75
2022-11-03T19:32:53.386Z,51.79
2022-11-03T19:35:24.432Z,51.65
2022-11-03T19:38:01.300Z,51.80
2022-11-03T19:40:30.186Z,51.76
2022-11-03T19:42:59.291Z,51.95
2022-11-03T19:45:28.942Z,52.12
2022-11-03T19:50:48.789Z,52.07
2022-11-03T19:53:23.555Z,52.21
2022-11-03T19:55:51.952Z,52.49
2022-11-03T19:58:24.524Z,52.46
2022-11-03T20:00:55.084Z,52.58
2022-11-03T20:03:24.201Z,52.71
2022-11-03T20:05:55.382Z,52.57
2022-11-03T20:08:27.020Z,52.80
2022-11-03T20:10:55.983Z,52.76
2022-11-03T20:13:28.773Z,52.84
2022-11-03T20:16:00.648Z,52.87
2022-11-03T20:18:30.444Z,52.77
2022-11-03T20:20:59.569Z,52.89
2022-11-03T20:23:30.836Z,52.83
2022-11-03T20:25:59.381Z,52.66
2022-11-03T20:28:32.348Z,52.95
2022-11-03T20:31:03.665Z,52.94
2022-11-03T20:33:32.424Z,52.86
2022-11-03T20:36:01.309Z,52.90
2022-11-03T20:38:30.154Z,52.91
2022-11-03T20:41:03.404Z,53.24
2022-11-03T20:43:36.949Z,53.36
2022-11-03T20:46:26.181Z,53.35
2022-11-03T20:48:56.325Z,53.43
2022-11-03T20:51:28.412Z,53.50
2022-11-03T20:53:57.259Z,53.58
2022-11-03T20:56:28.563Z,53.66
2022-11-03T20:58:58.696Z,53.89
2022-11-03T21:01:33.052Z,53.59
2022-11-03T21:04:03.215Z,53.74
2022-11-03T21:06:33.661Z,53.87
2022-11-03T21:09:02.080Z,53.95
2022-11-03T21:11:36.810Z,53.97
2022-11-03T21:14:15.878Z,53.95
2022-11-03T21:17:01.513Z,53.99
2022-11-03T21:19:55.569Z,54.04
2022-11-03T21:25:23.345Z,54.28
2022-11-03T21:27:52.193Z,54.19
2022-11-03T21:30:23.012Z,54.27
2022-11-03T21:32:51.354Z,54.31
2022-11-03T21:35:23.349Z,54.30
2022-11-03T21:37:51.651Z,54.50
2022-11-03T21:40:20.053Z,54.39
2022-11-03T21:43:04.995Z,54.50
2022-11-03T21:45:35.972Z,54.47
2022-11-03T21:48:22.713Z,54.43
2022-11-03T21:50:51.305Z,54.58
2022-11-03T21:53:19.764Z,54.60
2022-11-03T21:55:49.469Z,54.61
2022-11-03T21:58:17.839Z,54.69
2022-11-03T22:00:47.614Z,54.72
2022-11-03T22:03:16.057Z,54.83
2022-11-03T22:05:44.347Z,54.86
2022-11-03T22:08:12.682Z,55.11
2022-11-03T22:10:41.543Z,55.04
2022-11-03T22:13:10.433Z,55.11
2022-11-03T22:15:56.558Z,55.03
2022-11-03T22:18:26.378Z,55.05
2022-11-03T22:21:12.134Z,55.05
2022-11-03T22:23:57.779Z,55.10
2022-11-03T22:26:43.153Z,55.18
2022-11-03T22:29:28.689Z,55.07
2022-11-03T22:31:56.953Z,55.14
2022-11-03T22:34:44.308Z,55.02
2022-11-03T22:37:12.562Z,55.19
2022-11-03T22:39:58.219Z,55.21
2022-11-03T22:45:34.572Z,55.04
2022-11-03T22:48:04.770Z,54.85
2022-11-03T22:50:34.460Z,54.88
2022-11-03T22:53:23.048Z,55.04
2022-11-03T22:55:50.434Z,55.02
2022-11-03T22:58:18.826Z,54.88
2022-11-03T23:00:47.606Z,54.92
2022-11-03T23:03:16.144Z,55.31
2022-11-03T23:05:45.750Z,55.14
2022-11-03T23:08:14.037Z,55.27
2022-11-03T23:10:42.338Z,55.33
2022-11-03T23:13:11.080Z,55.61
2022-11-03T23:15:43.657Z,55.52
2022-11-03T23:18:29.470Z,55.69
2022-11-03T23:21:08.226Z,55.63
2022-11-03T23:23:54.853Z,55.65
2022-11-03T23:26:25.124Z,55.63
2022-11-03T23:28:53.804Z,55.76
2022-11-03T23:31:22.430Z,55.65
2022-11-03T23:33:50.735Z,55.66
2022-11-03T23:36:20.377Z,55.80
2022-11-03T23:38:48.565Z,55.67
2022-11-03T23:41:19.133Z,55.84
2022-11-03T23:43:48.213Z,55.83
2022-11-03T23:46:36.759Z,55.80
2022-11-03T23:49:05.401Z,55.82
2022-11-03T23:51:36.252Z,55.79
2022-11-03T23:54:06.769Z,55.75
2022-11-03T23:56:55.045Z,55.93
2022-11-03T23:59:24.205Z,56.14
